Nearby METAR Reports

 

EGTE - Exeter Airport, United Kingdom
Distance from station: S 19km
Updated: 10/12/2018 22:20
Mostly cloudy
Mostly cloudy
 Wind from calm
Wind: Calm
Temperature: 5°C
Dew Point: 4°C
Humidity: 93%
Barometer: 1027 hPa
Clouds: Mostly cloudy
Visibility: 10 km
Cloud details: Mostly cloudy 1158 m
2018/12/10 22:20 EGTE 102220Z 00000KT 9999 BKN038 05/04 Q1027
EGDY - Yeovilton (navy), United Kingdom
Distance from station: ENE 55km
Updated: 10/12/2018 22:50
Few Clouds
Few Clouds
 Wind from E
Wind: E 2 km/h
Temperature: 4°C
Dew Point: 3°C
Humidity: 93%
Barometer: 1028 hPa
Clouds: Few Clouds
Visibility: 10 km
Cloud details: Few Clouds 1067 m
2018/12/10 22:50 EGDY 102250Z 10001KT 9999 FEW035 04/03 Q1028 BLU NOSIG
 
EGFF - Cardiff-Wales Ar, United Kingdom
Distance from station: N 56km
Updated: 10/12/2018 22:50
Overcast
Overcast
 Wind from SSW
Wind: SSW 7 km/h
Temperature: 8°C
Wind Chill: 7°C
Dew Point: 8°C
Humidity: 100%
Barometer: 1027 hPa
Clouds: Overcast
Visibility: 10 km
Cloud details: Few Clouds 701 m
Partly cloudy 823 m
Overcast 945 m
2018/12/10 22:50 EGFF 102250Z AUTO 20004KT 9999 FEW023 SCT027 OVC031 08/08 Q1027
EGDX - St Athan Raf, United Kingdom
Distance from station: N 58km
Updated: 10/12/2018 21:50
Partly cloudy
Partly cloudy
 Wind from SSE
Wind: SSE 4 km/h
Temperature: 8°C
Dew Point: 7°C
Humidity: 93%
Barometer: 1027 hPa
Clouds: Partly cloudy
Visibility: 10 km
Cloud details: Mostly cloudy 579 m
Partly cloudy 1036 m
2018/12/10 21:50 EGDX 102150Z AUTO 16002KT 9999 BKN019/// SCT034/// 08/07 Q1027
 
EGGD - Bristol/Lulsgate, United Kingdom
Distance from station: NE 71km
Updated: 10/12/2018 22:50
Overcast
Overcast
 Wind from SSW
Wind: SSW 6 km/h
Temperature: 7°C
Dew Point: 7°C
Humidity: 100%
Barometer: 1027 hPa
Clouds: Overcast
Visibility: 10 km
Cloud details: Overcast 945 m
2018/12/10 22:50 EGGD 102250Z AUTO 20003KT 9999 OVC031 07/07 Q1027